sensor_id;sensor_type;location;lat;lon;timestamp;pressure;altitude;pressure_sealevel;temperature;humidity
25759;BME280;13604;52.496;13.456;2023-02-15T00:01:10;102846.81;;;0.96;100.00
25759;BME280;13604;52.496;13.456;2023-02-15T00:03:36;102846.09;;;0.89;100.00
25759;BME280;13604;52.496;13.456;2023-02-15T00:06:02;102828.16;;;0.82;100.00
25759;BME280;13604;52.496;13.456;2023-02-15T00:08:27;102848.81;;;0.84;100.00
25759;BME280;13604;52.496;13.456;2023-02-15T00:10:53;102845.75;;;0.79;100.00
25759;BME280;13604;52.496;13.456;2023-02-15T00:13:18;102852.69;;;0.80;100.00
25759;BME280;13604;52.496;13.456;2023-02-15T00:15:43;102847.22;;;0.70;100.00
25759;BME280;13604;52.496;13.456;2023-02-15T00:18:09;102835.69;;;0.66;100.00
25759;BME280;13604;52.496;13.456;2023-02-15T00:20:34;102842.47;;;0.66;100.00
25759;BME280;13604;52.496;13.456;2023-02-15T00:23:00;102834.78;;;0.66;100.00
25759;BME280;13604;52.496;13.456;2023-02-15T00:25:25;102822.31;;;0.54;100.00
25759;BME280;13604;52.496;13.456;2023-02-15T00:27:51;102812.25;;;0.34;100.00
25759;BME280;13604;52.496;13.456;2023-02-15T00:30:16;102829.81;;;0.46;100.00
25759;BME280;13604;52.496;13.456;2023-02-15T00:32:41;102804.75;;;0.29;100.00
25759;BME280;13604;52.496;13.456;2023-02-15T00:35:07;102822.88;;;0.45;100.00
25759;BME280;13604;52.496;13.456;2023-02-15T00:37:34;102819.03;;;0.41;100.00
25759;BME280;13604;52.496;13.456;2023-02-15T00:39:59;102792.84;;;0.22;100.00
25759;BME280;13604;52.496;13.456;2023-02-15T00:42:25;102790.84;;;0.12;100.00
25759;BME280;13604;52.496;13.456;2023-02-15T00:44:50;102817.56;;;0.29;100.00
25759;BME280;13604;52.496;13.456;2023-02-15T00:47:15;102792.69;;;0.13;100.00
25759;BME280;13604;52.496;13.456;2023-02-15T00:49:40;102807.31;;;0.14;100.00
25759;BME280;13604;52.496;13.456;2023-02-15T00:52:06;102819.75;;;0.26;100.00
25759;BME280;13604;52.496;13.456;2023-02-15T00:54:31;102817.38;;;0.20;100.00
25759;BME280;13604;52.496;13.456;2023-02-15T00:56:56;102793.41;;;0.05;100.00
25759;BME280;13604;52.496;13.456;2023-02-15T00:59:22;102827.09;;;0.15;100.00
25759;BME280;13604;52.496;13.456;2023-02-15T01:01:47;102826.91;;;0.07;100.00
25759;BME280;13604;52.496;13.456;2023-02-15T01:04:12;102808.41;;;0.02;100.00
25759;BME280;13604;52.496;13.456;2023-02-15T01:06:37;102810.59;;;0.06;100.00
25759;BME280;13604;52.496;13.456;2023-02-15T01:09:03;102820.13;;;0.00;100.00
25759;BME280;13604;52.496;13.456;2023-02-15T01:11:28;102814.63;;;-0.03;100.00
25759;BME280;13604;52.496;13.456;2023-02-15T01:13:57;102793.72;;;-0.28;100.00
25759;BME280;13604;52.496;13.456;2023-02-15T01:16:25;102787.16;;;-0.26;100.00
25759;BME280;13604;52.496;13.456;2023-02-15T01:18:50;102795.91;;;-0.24;100.00
25759;BME280;13604;52.496;13.456;2023-02-15T01:21:18;102802.31;;;-0.20;100.00
25759;BME280;13604;52.496;13.456;2023-02-15T01:23:45;102786.41;;;-0.32;100.00
25759;BME280;13604;52.496;13.456;2023-02-15T01:26:10;102773.78;;;-0.38;100.00
25759;BME280;13604;52.496;13.456;2023-02-15T01:28:37;102791.34;;;-0.26;100.00
25759;BME280;13604;52.496;13.456;2023-02-15T01:31:11;102777.25;;;-0.37;100.00
25759;BME280;13604;52.496;13.456;2023-02-15T01:33:37;102786.41;;;-0.32;100.00
25759;BME280;13604;52.496;13.456;2023-02-15T01:36:03;102771.75;;;-0.40;100.00
25759;BME280;13604;52.496;13.456;2023-02-15T01:38:28;102785.63;;;-0.38;100.00
25759;BME280;13604;52.496;13.456;2023-02-15T01:40:54;102777.44;;;-0.43;100.00
25759;BME280;13604;52.496;13.456;2023-02-15T01:43:44;102777.75;;;-0.47;100.00
25759;BME280;13604;52.496;13.456;2023-02-15T01:46:11;102758.53;;;-0.65;100.00
25759;BME280;13604;52.496;13.456;2023-02-15T01:48:43;102744.97;;;-0.71;100.00
25759;BME280;13604;52.496;13.456;2023-02-15T01:51:10;102745.34;;;-0.75;100.00
25759;BME280;13604;52.496;13.456;2023-02-15T01:54:02;102747.00;;;-0.68;100.00
25759;BME280;13604;52.496;13.456;2023-02-15T01:56:33;102739.66;;;-0.80;100.00
25759;BME280;13604;52.496;13.456;2023-02-15T01:59:03;102750.97;;;-0.85;100.00
25759;BME280;13604;52.496;13.456;2023-02-15T02:01:29;102742.78;;;-0.82;100.00
25759;BME280;13604;52.496;13.456;2023-02-15T02:06:41;102756.09;;;-0.78;100.00
25759;BME280;13604;52.496;13.456;2023-02-15T02:09:07;102743.69;;;-0.75;100.00
25759;BME280;13604;52.496;13.456;2023-02-15T02:11:33;102740.94;;;-0.76;100.00
25759;BME280;13604;52.496;13.456;2023-02-15T02:13:59;102705.09;;;-0.90;100.00
25759;BME280;13604;52.496;13.456;2023-02-15T02:17:32;102731.63;;;-0.76;100.00
25759;BME280;13604;52.496;13.456;2023-02-15T02:31:25;102727.56;;;-0.81;100.00
25759;BME280;13604;52.496;13.456;2023-02-15T02:37:10;102725.75;;;-0.82;100.00
25759;BME280;13604;52.496;13.456;2023-02-15T02:40:12;102720.06;;;-0.86;100.00
25759;BME280;13604;52.496;13.456;2023-02-15T02:42:41;102716.56;;;-0.94;100.00
25759;BME280;13604;52.496;13.456;2023-02-15T02:45:26;102714.91;;;-1.01;100.00
25759;BME280;13604;52.496;13.456;2023-02-15T02:47:58;102718.41;;;-1.00;100.00
25759;BME280;13604;52.496;13.456;2023-02-15T02:50:29;102713.25;;;-1.07;100.00
25759;BME280;13604;52.496;13.456;2023-02-15T02:52:56;102684.88;;;-1.23;100.00
25759;BME280;13604;52.496;13.456;2023-02-15T02:55:27;102675.50;;;-1.30;100.00
25759;BME280;13604;52.496;13.456;2023-02-15T02:57:56;102699.34;;;-1.17;100.00
25759;BME280;13604;52.496;13.456;2023-02-15T03:00:24;102687.78;;;-1.20;100.00
25759;BME280;13604;52.496;13.456;2023-02-15T03:02:55;102691.63;;;-1.24;100.00
25759;BME280;13604;52.496;13.456;2023-02-15T03:05:26;102694.19;;;-1.24;100.00
25759;BME280;13604;52.496;13.456;2023-02-15T03:07:53;102697.09;;;-1.28;100.00
25759;BME280;13604;52.496;13.456;2023-02-15T03:10:22;102700.38;;;-1.29;100.00
25759;BME280;13604;52.496;13.456;2023-02-15T03:12:49;102707.25;;;-1.35;100.00
25759;BME280;13604;52.496;13.456;2023-02-15T03:15:19;102697.03;;;-1.42;100.00
25759;BME280;13604;52.496;13.456;2023-02-15T03:17:48;102692.09;;;-1.41;100.00
25759;BME280;13604;52.496;13.456;2023-02-15T03:20:26;102692.63;;;-1.43;100.00
25759;BME280;13604;52.496;13.456;2023-02-15T03:23:02;102701.94;;;-1.44;100.00
25759;BME280;13604;52.496;13.456;2023-02-15T03:25:56;102682.88;;;-1.53;100.00
25759;BME280;13604;52.496;13.456;2023-02-15T03:28:27;102665.66;;;-1.69;100.00
25759;BME280;13604;52.496;13.456;2023-02-15T03:30:57;102692.91;;;-1.55;100.00
25759;BME280;13604;52.496;13.456;2023-02-15T03:33:26;102682.84;;;-1.68;100.00
25759;BME280;13604;52.496;13.456;2023-02-15T03:36:12;102687.00;;;-1.68;100.00
25759;BME280;13604;52.496;13.456;2023-02-15T03:41:34;102674.38;;;-1.81;100.00
25759;BME280;13604;52.496;13.456;2023-02-15T03:44:15;102657.88;;;-1.90;100.00
25759;BME280;13604;52.496;13.456;2023-02-15T03:46:48;102676.84;;;-1.88;100.00
25759;BME280;13604;52.496;13.456;2023-02-15T03:49:27;102676.25;;;-1.73;100.00
25759;BME280;13604;52.496;13.456;2023-02-15T03:51:56;102652.91;;;-1.96;100.00
25759;BME280;13604;52.496;13.456;2023-02-15T03:54:28;102677.94;;;-1.86;100.00
25759;BME280;13604;52.496;13.456;2023-02-15T03:57:24;102669.75;;;-1.91;100.00
25759;BME280;13604;52.496;13.456;2023-02-15T04:00:17;102670.06;;;-1.95;100.00
25759;BME280;13604;52.496;13.456;2023-02-15T04:05:39;102656.63;;;-2.14;100.00
25759;BME280;13604;52.496;13.456;2023-02-15T04:08:05;102665.19;;;-2.13;100.00
25759;BME280;13604;52.496;13.456;2023-02-15T04:10:30;102660.75;;;-2.22;100.00
25759;BME280;13604;52.496;13.456;2023-02-15T04:13:14;102670.56;;;-2.25;100.00
25759;BME280;13604;52.496;13.456;2023-02-15T04:15:39;102663.22;;;-2.29;100.00
25759;BME280;13604;52.496;13.456;2023-02-15T04:18:23;102656.97;;;-2.38;100.00
25759;BME280;13604;52.496;13.456;2023-02-15T04:21:07;102635.34;;;-2.54;100.00
25759;BME280;13604;52.496;13.456;2023-02-15T04:23:51;102657.38;;;-2.55;100.00
25759;BME280;13604;52.496;13.456;2023-02-15T04:26:35;102646.97;;;-2.56;100.00
25759;BME280;13604;52.496;13.456;2023-02-15T04:29:00;102640.53;;;-2.60;100.00
25759;BME280;13604;52.496;13.456;2023-02-15T04:31:26;102624.88;;;-2.63;100.00
25759;BME280;13604;52.496;13.456;2023-02-15T04:33:51;102656.84;;;-2.52;100.00
25759;BME280;13604;52.496;13.456;2023-02-15T04:36:16;102644.53;;;-2.62;100.00
25759;BME280;13604;52.496;13.456;2023-02-15T04:38:41;102651.69;;;-2.60;100.00
25759;BME280;13604;52.496;13.456;2023-02-15T04:41:07;102643.03;;;-2.67;100.00
25759;BME280;13604;52.496;13.456;2023-02-15T04:43:32;102639.69;;;-2.73;100.00
25759;BME280;13604;52.496;13.456;2023-02-15T04:45:58;102649.78;;;-2.68;100.00
25759;BME280;13604;52.496;13.456;2023-02-15T04:48:23;102641.16;;;-2.75;100.00
25759;BME280;13604;52.496;13.456;2023-02-15T04:50:49;102642.78;;;-2.76;100.00
25759;BME280;13604;52.496;13.456;2023-02-15T04:53:14;102610.94;;;-2.92;100.00
25759;BME280;13604;52.496;13.456;2023-02-15T04:55:41;102628.84;;;-2.85;100.00
25759;BME280;13604;52.496;13.456;2023-02-15T04:58:06;102618.03;;;-2.90;100.00
25759;BME280;13604;52.496;13.456;2023-02-15T05:00:32;102624.28;;;-2.88;100.00
25759;BME280;13604;52.496;13.456;2023-02-15T05:02:57;102615.09;;;-2.93;100.00
25759;BME280;13604;52.496;13.456;2023-02-15T05:05:22;102609.22;;;-2.99;100.00
25759;BME280;13604;52.496;13.456;2023-02-15T05:07:48;102603.59;;;-2.97;100.00
25759;BME280;13604;52.496;13.456;2023-02-15T05:10:13;102606.16;;;-2.97;100.00
25759;BME280;13604;52.496;13.456;2023-02-15T05:12:38;102605.34;;;-3.03;100.00
25759;BME280;13604;52.496;13.456;2023-02-15T05:15:04;102601.78;;;-2.98;100.00
25759;BME280;13604;52.496;13.456;2023-02-15T05:17:29;102578.75;;;-3.05;100.00
25759;BME280;13604;52.496;13.456;2023-02-15T05:19:54;102577.13;;;-3.04;100.00
25759;BME280;13604;52.496;13.456;2023-02-15T05:22:20;102592.88;;;-2.94;100.00
25759;BME280;13604;52.496;13.456;2023-02-15T05:24:45;102580.53;;;-2.91;100.00
25759;BME280;13604;52.496;13.456;2023-02-15T05:27:29;102585.53;;;-2.78;100.00
25759;BME280;13604;52.496;13.456;2023-02-15T05:30:13;102599.72;;;-2.60;100.00
25759;BME280;13604;52.496;13.456;2023-02-15T05:32:38;102585.69;;;-2.64;100.00
25759;BME280;13604;52.496;13.456;2023-02-15T05:35:05;102572.88;;;-2.71;100.00
25759;BME280;13604;52.496;13.456;2023-02-15T05:37:31;102596.16;;;-2.55;100.00
25759;BME280;13604;52.496;13.456;2023-02-15T05:39:56;102585.75;;;-2.56;100.00
25759;BME280;13604;52.496;13.456;2023-02-15T05:42:21;102596.41;;;-2.46;100.00
25759;BME280;13604;52.496;13.456;2023-02-15T05:44:47;102566.56;;;-2.60;100.00
25759;BME280;13604;52.496;13.456;2023-02-15T05:47:12;102567.91;;;-2.56;100.00
25759;BME280;13604;52.496;13.456;2023-02-15T05:49:37;102586.44;;;-2.37;100.00
25759;BME280;13604;52.496;13.456;2023-02-15T05:52:03;102575.25;;;-2.45;100.00
25759;BME280;13604;52.496;13.456;2023-02-15T05:54:28;102583.88;;;-2.37;100.00
25759;BME280;13604;52.496;13.456;2023-02-15T05:56:54;102565.59;;;-2.48;100.00
25759;BME280;13604;52.496;13.456;2023-02-15T05:59:19;102584.63;;;-2.38;100.00
25759;BME280;13604;52.496;13.456;2023-02-15T06:01:44;102581.88;;;-2.40;100.00
25759;BME280;13604;52.496;13.456;2023-02-15T06:04:10;102575.09;;;-2.47;100.00
25759;BME280;13604;52.496;13.456;2023-02-15T06:06:35;102588.28;;;-2.36;100.00
25759;BME280;13604;52.496;13.456;2023-02-15T06:09:00;102584.53;;;-2.46;100.00
25759;BME280;13604;52.496;13.456;2023-02-15T06:11:26;102584.31;;;-2.54;100.00
25759;BME280;13604;52.496;13.456;2023-02-15T06:13:51;102568.38;;;-2.66;100.00
25759;BME280;13604;52.496;13.456;2023-02-15T06:16:16;102568.22;;;-2.61;100.00
25759;BME280;13604;52.496;13.456;2023-02-15T06:18:42;102566.56;;;-2.60;100.00
25759;BME280;13604;52.496;13.456;2023-02-15T06:21:07;102595.84;;;-2.44;100.00
25759;BME280;13604;52.496;13.456;2023-02-15T06:23:33;102567.13;;;-2.63;100.00
25759;BME280;13604;52.496;13.456;2023-02-15T06:25:58;102579.44;;;-2.46;100.00
25759;BME280;13604;52.496;13.456;2023-02-15T06:28:23;102564.09;;;-2.53;100.00
25759;BME280;13604;52.496;13.456;2023-02-15T06:30:50;102580.75;;;-2.42;100.00
25759;BME280;13604;52.496;13.456;2023-02-15T06:33:15;102571.19;;;-2.50;100.00
25759;BME280;13604;52.496;13.456;2023-02-15T06:35:41;102579.06;;;-2.49;100.00
25759;BME280;13604;52.496;13.456;2023-02-15T06:38:06;102577.38;;;-2.55;100.00
25759;BME280;13604;52.496;13.456;2023-02-15T06:40:31;102551.81;;;-2.63;100.00
25759;BME280;13604;52.496;13.456;2023-02-15T06:42:57;102561.84;;;-2.57;100.00
25759;BME280;13604;52.496;13.456;2023-02-15T06:45:22;102568.91;;;-2.42;100.00
25759;BME280;13604;52.496;13.456;2023-02-15T06:47:47;102571.31;;;-2.36;100.00
25759;BME280;13604;52.496;13.456;2023-02-15T06:50:13;102573.91;;;-2.29;100.00
25759;BME280;13604;52.496;13.456;2023-02-15T06:52:38;102561.53;;;-2.26;100.00
25759;BME280;13604;52.496;13.456;2023-02-15T06:55:03;102570.22;;;-2.38;100.00
25759;BME280;13604;52.496;13.456;2023-02-15T06:57:29;102536.06;;;-2.46;100.00
25759;BME280;13604;52.496;13.456;2023-02-15T06:59:54;102562.47;;;-2.25;100.00
25759;BME280;13604;52.496;13.456;2023-02-15T07:02:19;102568.66;;;-2.23;100.00
25759;BME280;13604;52.496;13.456;2023-02-15T07:04:45;102569.38;;;-2.24;100.00
25759;BME280;13604;52.496;13.456;2023-02-15T07:07:11;102565.06;;;-2.18;100.00
25759;BME280;13604;52.496;13.456;2023-02-15T07:09:36;102552.44;;;-2.24;100.00
25759;BME280;13604;52.496;13.456;2023-02-15T07:12:02;102557.47;;;-2.38;100.00
25759;BME280;13604;52.496;13.456;2023-02-15T07:14:46;102545.13;;;-2.28;100.00
25759;BME280;13604;52.496;13.456;2023-02-15T07:17:11;102519.31;;;-2.44;100.00
25759;BME280;13604;52.496;13.456;2023-02-15T07:19:37;102546.13;;;-2.13;100.00
25759;BME280;13604;52.496;13.456;2023-02-15T07:22:02;102547.38;;;-2.16;100.00
25759;BME280;13604;52.496;13.456;2023-02-15T07:24:28;102543.66;;;-2.26;100.00
25759;BME280;13604;52.496;13.456;2023-02-15T07:26:54;102554.53;;;-2.14;100.00
25759;BME280;13604;52.496;13.456;2023-02-15T07:29:19;102540.13;;;-2.06;100.00
25759;BME280;13604;52.496;13.456;2023-02-15T07:31:44;102543.34;;;-2.22;100.00
25759;BME280;13604;52.496;13.456;2023-02-15T07:34:10;102541.47;;;-2.30;100.00
25759;BME280;13604;52.496;13.456;2023-02-15T07:36:36;102528.31;;;-2.33;100.00
25759;BME280;13604;52.496;13.456;2023-02-15T07:39:01;102522.44;;;-2.05;100.00
25759;BME280;13604;52.496;13.456;2023-02-15T07:41:26;102527.63;;;-1.90;100.00
25759;BME280;13604;52.496;13.456;2023-02-15T07:43:52;102525.38;;;-2.09;100.00
25759;BME280;13604;52.496;13.456;2023-02-15T07:46:17;102520.78;;;-2.11;100.00
25759;BME280;13604;52.496;13.456;2023-02-15T07:48:44;102523.34;;;-2.04;100.00
25759;BME280;13604;52.496;13.456;2023-02-15T07:51:10;102521.75;;;-2.04;100.00
25759;BME280;13604;52.496;13.456;2023-02-15T07:53:37;102490.53;;;-2.08;100.00
25759;BME280;13604;52.496;13.456;2023-02-15T07:56:05;102512.31;;;-1.90;100.00
25759;BME280;13604;52.496;13.456;2023-02-15T07:58:31;102500.81;;;-1.94;100.00
25759;BME280;13604;52.496;13.456;2023-02-15T08:01:15;102511.03;;;-1.87;100.00
25759;BME280;13604;52.496;13.456;2023-02-15T08:03:41;102489.25;;;-2.05;100.00
25759;BME280;13604;52.496;13.456;2023-02-15T08:06:06;102500.91;;;-2.14;100.00
25759;BME280;13604;52.496;13.456;2023-02-15T08:08:35;102484.31;;;-2.10;100.00
25759;BME280;13604;52.496;13.456;2023-02-15T08:11:05;102510.66;;;-1.90;100.00
25759;BME280;13604;52.496;13.456;2023-02-15T08:13:50;102504.06;;;-1.95;100.00
25759;BME280;13604;52.496;13.456;2023-02-15T08:16:23;102510.31;;;-1.86;100.00
25759;BME280;13604;52.496;13.456;2023-02-15T08:18:49;102499.16;;;-1.93;100.00
25759;BME280;13604;52.496;13.456;2023-02-15T08:21:14;102514.16;;;-1.89;100.00
25759;BME280;13604;52.496;13.456;2023-02-15T08:23:39;102513.78;;;-1.92;100.00
25759;BME280;13604;52.496;13.456;2023-02-15T08:26:05;102509.19;;;-1.88;100.00
25759;BME280;13604;52.496;13.456;2023-02-15T08:28:30;102495.19;;;-1.77;100.00
25759;BME280;13604;52.496;13.456;2023-02-15T08:31:04;102508.56;;;-1.65;100.00
25759;BME280;13604;52.496;13.456;2023-02-15T08:33:30;102508.41;;;-1.59;100.00
25759;BME280;13604;52.496;13.456;2023-02-15T08:35:55;102497.44;;;-1.58;100.00
25759;BME280;13604;52.496;13.456;2023-02-15T08:38:21;102503.84;;;-1.55;100.00
25759;BME280;13604;52.496;13.456;2023-02-15T08:40:46;102496.56;;;-1.44;100.00
25759;BME280;13604;52.496;13.456;2023-02-15T08:43:12;102491.47;;;-1.30;100.00
25759;BME280;13604;52.496;13.456;2023-02-15T08:45:37;102492.03;;;-1.11;100.00
25759;BME280;13604;52.496;13.456;2023-02-15T08:48:03;102482.00;;;-1.17;100.00
25759;BME280;13604;52.496;13.456;2023-02-15T08:50:28;102484.91;;;-1.14;100.00
25759;BME280;13604;52.496;13.456;2023-02-15T08:52:55;102463.00;;;-1.26;100.00
25759;BME280;13604;52.496;13.456;2023-02-15T08:55:20;102445.13;;;-1.12;100.00
25759;BME280;13604;52.496;13.456;2023-02-15T08:57:46;102477.78;;;-0.80;100.00
25759;BME280;13604;52.496;13.456;2023-02-15T09:00:12;102452.56;;;-1.20;100.00
25759;BME280;13604;52.496;13.456;2023-02-15T09:02:37;102472.50;;;-0.96;100.00
25759;BME280;13604;52.496;13.456;2023-02-15T09:05:03;102464.63;;;-0.83;100.00
25759;BME280;13604;52.496;13.456;2023-02-15T09:07:28;102463.88;;;-0.68;100.00
25759;BME280;13604;52.496;13.456;2023-02-15T09:09:54;102436.66;;;-0.67;100.00
25759;BME280;13604;52.496;13.456;2023-02-15T09:12:19;102437.56;;;-0.67;100.00
25759;BME280;13604;52.496;13.456;2023-02-15T09:14:45;102446.88;;;-0.60;100.00
25759;BME280;13604;52.496;13.456;2023-02-15T09:17:10;102444.13;;;-0.62;100.00
25759;BME280;13604;52.496;13.456;2023-02-15T09:19:35;102436.31;;;-0.19;100.00
25759;BME280;13604;52.496;13.456;2023-02-15T09:22:00;102462.28;;;0.22;100.00
25759;BME280;13604;52.496;13.456;2023-02-15T09:24:26;102464.59;;;-0.03;100.00
25759;BME280;13604;52.496;13.456;2023-02-15T09:26:51;102460.59;;;0.30;100.00
25759;BME280;13604;52.496;13.456;2023-02-15T09:29:17;102445.66;;;0.11;100.00
25759;BME280;13604;52.496;13.456;2023-02-15T09:31:45;102464.00;;;0.68;100.00
25759;BME280;13604;52.496;13.456;2023-02-15T09:34:12;102461.91;;;0.57;100.00
25759;BME280;13604;52.496;13.456;2023-02-15T09:36:39;102439.44;;;0.93;100.00
25759;BME280;13604;52.496;13.456;2023-02-15T09:39:15;102437.72;;;1.01;100.00
25759;BME280;13604;52.496;13.456;2023-02-15T09:41:57;102462.97;;;1.44;100.00
25759;BME280;13604;52.496;13.456;2023-02-15T09:44:53;102440.28;;;1.72;100.00
25759;BME280;13604;52.496;13.456;2023-02-15T09:47:45;102466.53;;;1.85;100.00
25759;BME280;13604;52.496;13.456;2023-02-15T09:56:17;102455.59;;;1.95;100.00
25759;BME280;13604;52.496;13.456;2023-02-15T10:07:25;102451.63;;;1.74;100.00
25759;BME280;13604;52.496;13.456;2023-02-15T10:10:06;102442.66;;;2.02;98.00
25759;BME280;13604;52.496;13.456;2023-02-15T10:13:21;102445.50;;;2.37;97.10
25759;BME280;13604;52.496;13.456;2023-02-15T10:18:06;102436.06;;;3.29;95.22
25759;BME280;13604;52.496;13.456;2023-02-15T10:20:56;102443.47;;;3.26;89.22
25759;BME280;13604;52.496;13.456;2023-02-15T10:23:57;102429.00;;;3.96;88.61
25759;BME280;13604;52.496;13.456;2023-02-15T10:29:23;102435.38;;;3.82;86.17
25759;BME280;13604;52.496;13.456;2023-02-15T10:32:03;102418.31;;;4.46;84.08
25759;BME280;13604;52.496;13.456;2023-02-15T10:34:47;102407.34;;;5.87;78.21
25759;BME280;13604;52.496;13.456;2023-02-15T10:37:31;102416.91;;;6.95;73.22
25759;BME280;13604;52.496;13.456;2023-02-15T10:40:22;102408.66;;;7.50;68.13
25759;BME280;13604;52.496;13.456;2023-02-15T10:45:36;102386.44;;;7.74;67.64
25759;BME280;13604;52.496;13.456;2023-02-15T10:50:54;102408.53;;;7.59;67.56
25759;BME280;13604;52.496;13.456;2023-02-15T10:53:29;102395.31;;;10.46;59.17
25759;BME280;13604;52.496;13.456;2023-02-15T10:56:28;102384.22;;;12.15;51.98
25759;BME280;13604;52.496;13.456;2023-02-15T11:04:45;102382.03;;;16.26;44.33
25759;BME280;13604;52.496;13.456;2023-02-15T11:07:21;102378.78;;;16.69;41.87
25759;BME280;13604;52.496;13.456;2023-02-15T11:09:57;102368.38;;;18.36;39.59
25759;BME280;13604;52.496;13.456;2023-02-15T11:12:27;102371.13;;;17.32;38.70
25759;BME280;13604;52.496;13.456;2023-02-15T11:15:14;102357.94;;;15.28;41.35
25759;BME280;13604;52.496;13.456;2023-02-15T11:17:45;102358.25;;;16.60;39.50
25759;BME280;13604;52.496;13.456;2023-02-15T11:20:34;102361.41;;;18.61;37.85
25759;BME280;13604;52.496;13.456;2023-02-15T11:23:02;102359.44;;;19.77;33.49
25759;BME280;13604;52.496;13.456;2023-02-15T11:25:32;102357.75;;;21.61;31.73
25759;BME280;13604;52.496;13.456;2023-02-15T11:28:00;102345.28;;;22.74;30.25
25759;BME280;13604;52.496;13.456;2023-02-15T11:30:41;102343.03;;;22.11;30.63
25759;BME280;13604;52.496;13.456;2023-02-15T11:33:15;102348.81;;;21.93;30.74
25759;BME280;13604;52.496;13.456;2023-02-15T11:35:50;102326.69;;;21.56;30.31
25759;BME280;13604;52.496;13.456;2023-02-15T11:38:20;102339.75;;;19.96;32.63
25759;BME280;13604;52.496;13.456;2023-02-15T11:43:24;102326.38;;;20.78;31.44
25759;BME280;13604;52.496;13.456;2023-02-15T11:45:51;102310.50;;;19.64;32.38
25759;BME280;13604;52.496;13.456;2023-02-15T11:48:17;102304.88;;;18.78;33.40
25759;BME280;13604;52.496;13.456;2023-02-15T11:50:44;102305.34;;;19.15;33.86
25759;BME280;13604;52.496;13.456;2023-02-15T11:53:18;102307.28;;;20.59;31.24
25759;BME280;13604;52.496;13.456;2023-02-15T11:55:47;102285.16;;;23.25;28.57
25759;BME280;13604;52.496;13.456;2023-02-15T11:58:28;102303.69;;;25.10;26.95
25759;BME280;13604;52.496;13.456;2023-02-15T12:01:09;102300.34;;;23.31;28.09
25759;BME280;13604;52.496;13.456;2023-02-15T12:03:47;102294.25;;;20.66;30.78
25759;BME280;13604;52.496;13.456;2023-02-15T12:06:24;102304.31;;;21.46;30.95
25759;BME280;13604;52.496;13.456;2023-02-15T12:09:16;102311.44;;;23.07;28.64
25759;BME280;13604;52.496;13.456;2023-02-15T12:11:44;102311.31;;;23.51;28.18
25759;BME280;13604;52.496;13.456;2023-02-15T12:14:11;102310.47;;;25.74;25.53
25759;BME280;13604;52.496;13.456;2023-02-15T12:16:43;102287.75;;;26.61;24.16
25759;BME280;13604;52.496;13.456;2023-02-15T12:19:32;102304.63;;;26.35;24.54
25759;BME280;13604;52.496;13.456;2023-02-15T12:21:59;102296.53;;;19.68;32.19
25759;BME280;13604;52.496;13.456;2023-02-15T12:24:28;102293.09;;;21.56;30.70
25759;BME280;13604;52.496;13.456;2023-02-15T12:27:02;102283.81;;;20.11;32.14
25759;BME280;13604;52.496;13.456;2023-02-15T12:29:52;102282.59;;;22.38;29.68
25759;BME280;13604;52.496;13.456;2023-02-15T12:32:31;102283.31;;;23.75;27.48
25759;BME280;13604;52.496;13.456;2023-02-15T12:35:09;102275.41;;;19.41;32.87
25759;BME280;13604;52.496;13.456;2023-02-15T12:37:38;102272.00;;;19.73;32.76
25759;BME280;13604;52.496;13.456;2023-02-15T12:40:22;102248.41;;;19.23;33.94
25759;BME280;13604;52.496;13.456;2023-02-15T12:42:48;102249.34;;;17.81;35.53
25759;BME280;13604;52.496;13.456;2023-02-15T12:45:31;102255.81;;;19.35;33.56
25759;BME280;13604;52.496;13.456;2023-02-15T12:50:37;102240.41;;;24.13;28.25
25759;BME280;13604;52.496;13.456;2023-02-15T12:53:18;102251.16;;;26.29;26.54
25759;BME280;13604;52.496;13.456;2023-02-15T12:56:13;102242.91;;;25.81;25.38
25759;BME280;13604;52.496;13.456;2023-02-15T12:59:04;102239.63;;;26.32;25.51
25759;BME280;13604;52.496;13.456;2023-02-15T13:01:31;102235.69;;;24.64;26.67
25759;BME280;13604;52.496;13.456;2023-02-15T13:04:03;102220.41;;;23.19;28.58
25759;BME280;13604;52.496;13.456;2023-02-15T13:06:32;102234.19;;;24.87;27.11
25759;BME280;13604;52.496;13.456;2023-02-15T13:09:14;102220.16;;;27.00;25.06
25759;BME280;13604;52.496;13.456;2023-02-15T13:11:41;102205.66;;;28.22;23.29
25759;BME280;13604;52.496;13.456;2023-02-15T13:14:32;102202.97;;;28.20;23.03
25759;BME280;13604;52.496;13.456;2023-02-15T13:17:00;102216.44;;;28.05;23.28
25759;BME280;13604;52.496;13.456;2023-02-15T13:19:37;102198.69;;;26.53;24.30
25759;BME280;13604;52.496;13.456;2023-02-15T13:22:13;102199.66;;;26.66;25.02
25759;BME280;13604;52.496;13.456;2023-02-15T13:24:42;102193.44;;;27.22;23.86
25759;BME280;13604;52.496;13.456;2023-02-15T13:27:15;102195.19;;;27.52;23.80
25759;BME280;13604;52.496;13.456;2023-02-15T13:29:44;102189.38;;;24.49;26.60
25759;BME280;13604;52.496;13.456;2023-02-15T13:32:25;102186.88;;;20.44;31.31
25759;BME280;13604;52.496;13.456;2023-02-15T13:34:54;102156.81;;;18.45;34.63
25759;BME280;13604;52.496;13.456;2023-02-15T13:37:39;102167.78;;;18.83;34.65
25759;BME280;13604;52.496;13.456;2023-02-15T13:40:22;102182.81;;;19.94;33.43
25759;BME280;13604;52.496;13.456;2023-02-15T13:43:05;102155.34;;;22.95;29.88
25759;BME280;13604;52.496;13.456;2023-02-15T13:45:50;102163.06;;;26.43;25.80
25759;BME280;13604;52.496;13.456;2023-02-15T13:48:26;102170.00;;;28.06;24.08
25759;BME280;13604;52.496;13.456;2023-02-15T13:51:18;102171.63;;;29.48;22.57
25759;BME280;13604;52.496;13.456;2023-02-15T13:54:00;102168.38;;;27.65;24.14